Shurei 2 — JD4209 — position and weather

sailwx.info

Track history (hours):
 
Tides and Currents Weather Stations Pressure Air Temp Water Temp Dewpoint Dewpoint Depression Visibility Wind Speed Wind Dir Waves Ship Positions

Shurei 2

Last reported at 2018-Jun-18 22:30 UTC. Time now 2018-Jun-18 22:31 UTC.
Position N 34°36' E 135°21'.

Length 182 m; draft 6.6 m.

Type: Cargo ship. MMSI: 431010021.

Date/timePositionNaut miles runAvg speedWind from/ knotsBaromVisibWave heightAir tempDewpointWater temp
2018-Jun-18 22:30N 34°36' E 135°21'919.0
2018-Jun-18 22:00N 34°29' E 135°13'1019.0
2018-Jun-18 21:30N 34°23' E 135°04'917.9
2018-Jun-18 21:00N 34°16' E 134°59'918.9
2018-Jun-18 20:30N 34°06' E 134°57'1020.1
2018-Jun-18 20:00N 33°56' E 134°56'2519.7
2018-Jun-18 18:43N 33°34' E 134°42'  
2018-Jun-14 16:07N 33°38' E 134°42'218.8
2018-Jun-14 16:00N 33°39' E 134°44'1018.3
2018-Jun-14 15:28N 33°48' E 134°51'918.4
2018-Jun-14 14:59N 33°56' E 134°54'919.0
2018-Jun-14 14:30N 34°05' E 134°54'1018.6
2018-Jun-14 13:58N 34°15' E 134°58'715.9
2018-Jun-14 13:31N 34°22' E 135°00'918.2
2018-Jun-14 13:01N 34°28' E 135°08'1018.8
2018-Jun-14 12:30N 34°35' E 135°16'714.0
2018-Jun-14 12:00N 34°38' E 135°24'1 1.4
2018-Jun-14 11:24N 34°37' E 135°25'0 0.0
2018-Jun-14 11:00N 34°37' E 135°25'0 0.0
2018-Jun-14 10:30N 34°37' E 135°25'0 0.0
2018-Jun-14 10:00N 34°37' E 135°25'0 0.0
2018-Jun-14 09:30N 34°37' E 135°25'0 0.0
2018-Jun-14 08:48N 34°37' E 135°25'0 0.0
2018-Jun-14 08:06N 34°37' E 135°25'0 0.0
2018-Jun-14 07:54N 34°37' E 135°25'0 0.0
2018-Jun-14 07:30N 34°37' E 135°25'0 0.0
2018-Jun-14 06:48N 34°37' E 135°25'0 0.0
2018-Jun-14 06:30N 34°37' E 135°25'0 0.0
2018-Jun-14 06:00N 34°37' E 135°25'1 1.1
2018-Jun-14 05:30N 34°37' E 135°24'714.6
2018-Jun-14 05:00N 34°33' E 135°17'919.0
2018-Jun-14 04:30N 34°26' E 135°09'918.6
2018-Jun-14 04:00N 34°20' E 135°01'816.4
2018-Jun-14 03:30N 34°12' E 134°59'919.0
2018-Jun-14 03:00N 34°02' E 134°59'1019.1
2018-Jun-14 02:30N 33°53' E 134°60'1018.4
2018-Jun-14 01:59N 33°44' E 135°04'1118.9
2018-Jun-14 01:25N 33°36' E 135°13'23918.2
2018-Jun-13 12:16N 35°06' E 139°42'518.0
2018-Jun-13 11:58N 35°10' E 139°45'612.9
2018-Jun-13 11:30N 35°16' E 139°45'612.7
2018-Jun-13 11:00N 35°22' E 139°42'918.1
2018-Jun-13 10:30N 35°29' E 139°50'713.3
2018-Jun-13 09:59N 35°36' E 139°47'2 0.1
2018-Jun-12 07:12N 35°37' E 139°47'0 0.0
2018-Jun-12 03:07N 35°37' E 139°47'1 5.4
2018-Jun-12 02:58N 35°37' E 139°48'4 8.9
2018-Jun-12 02:30N 35°33' E 139°50'714.7
2018-Jun-12 02:00N 35°26' E 139°48'713.6
2018-Jun-12 01:30N 35°20' E 139°45'611.9
2018-Jun-12 01:00N 35°15' E 139°47'815.4
2018-Jun-12 00:30N 35°07' E 139°45'24218.1
2018-Jun-11 11:06N 33°39' E 135°12'219.9
2018-Jun-11 11:00N 33°41' E 135°10'1020.1
2018-Jun-11 10:31N 33°48' E 135°03'1018.9
2018-Jun-11 10:00N 33°57' E 134°58'1019.7
2018-Jun-11 09:31N 34°07' E 134°58'1019.8
2018-Jun-11 09:01N 34°16' E 134°58'1019.2
2018-Jun-11 08:31N 34°26' E 135°02'1020.4
2018-Jun-11 08:01N 34°32' E 135°11'918.2
2018-Jun-11 07:31N 34°37' E 135°21'3 0.8
2018-Jun-11 03:21N 34°37' E 135°25'0 0.0
2018-Jun-11 02:57N 34°37' E 135°25'0 0.0
2018-Jun-11 02:27N 34°37' E 135°25'0 0.0
2018-Jun-11 01:57N 34°37' E 135°25'0 0.0
2018-Jun-11 01:27N 34°37' E 135°25'0 0.0
2018-Jun-11 00:57N 34°37' E 135°25'0 0.0
2018-Jun-11 00:27N 34°37' E 135°25'0 0.0
2018-Jun-10 23:57N 34°37' E 135°25'0 0.0
2018-Jun-10 23:09N 34°37' E 135°25'0 0.0
2018-Jun-10 22:51N 34°37' E 135°25'0 0.0
2018-Jun-10 22:21N 34°37' E 135°25'0 0.0
2018-Jun-10 20:51N 34°37' E 135°25'0 0.0
2018-Jun-10 20:21N 34°37' E 135°25'0 0.0
2018-Jun-10 19:57N 34°37' E 135°25'0 0.0
2018-Jun-10 19:27N 34°37' E 135°25'0 0.0
2018-Jun-10 18:57N 34°37' E 135°25'0 0.0
2018-Jun-10 17:42N 34°37' E 135°25'0 0.1
2018-Jun-10 17:30N 34°37' E 135°25'2 4.7
2018-Jun-10 17:00N 34°37' E 135°22'815.9
2018-Jun-10 16:30N 34°32' E 135°15'918.8
2018-Jun-10 16:00N 34°25' E 135°07'918.9
2018-Jun-10 15:30N 34°18' E 134°60'918.2
2018-Jun-10 15:00N 34°09' E 134°57'1019.5
2018-Jun-10 14:30N 33°59' E 134°55'2619.1
2018-Jun-10 13:10N 33°36' E 134°43'  
Track history (hours):
 
Tides and Currents Weather Stations Pressure Air Temp Water Temp Dewpoint Dewpoint Depression Visibility Wind Speed Wind Dir Waves Ship Positions

Shurei 2

Last reported at 2018-Jun-18 22:30 UTC. Time now 2018-Jun-18 22:31 UTC.
Position N 34°36' E 135°21'.

Length 182 m; draft 6.6 m.

Type: Cargo ship. MMSI: 431010021.

Date/timePositionNaut miles runAvg speedWind from/ knotsBaromVisibWave heightAir tempDewpointWater temp
2018-Jun-18 22:30N 34°36' E 135°21'919.0
2018-Jun-18 22:00N 34°29' E 135°13'1019.0
2018-Jun-18 21:30N 34°23' E 135°04'917.9
2018-Jun-18 21:00N 34°16' E 134°59'918.9
2018-Jun-18 20:30N 34°06' E 134°57'1020.1
2018-Jun-18 20:00N 33°56' E 134°56'2519.7
2018-Jun-18 18:43N 33°34' E 134°42'  
2018-Jun-14 16:07N 33°38' E 134°42'218.8
2018-Jun-14 16:00N 33°39' E 134°44'1018.3
2018-Jun-14 15:28N 33°48' E 134°51'918.4
2018-Jun-14 14:59N 33°56' E 134°54'919.0
2018-Jun-14 14:30N 34°05' E 134°54'1018.6
2018-Jun-14 13:58N 34°15' E 134°58'715.9
2018-Jun-14 13:31N 34°22' E 135°00'918.2
2018-Jun-14 13:01N 34°28' E 135°08'1018.8
2018-Jun-14 12:30N 34°35' E 135°16'714.0
2018-Jun-14 12:00N 34°38' E 135°24'1 1.4
2018-Jun-14 11:24N 34°37' E 135°25'0 0.0
2018-Jun-14 11:00N 34°37' E 135°25'0 0.0
2018-Jun-14 10:30N 34°37' E 135°25'0 0.0
2018-Jun-14 10:00N 34°37' E 135°25'0 0.0
2018-Jun-14 09:30N 34°37' E 135°25'0 0.0
2018-Jun-14 08:48N 34°37' E 135°25'0 0.0
2018-Jun-14 08:06N 34°37' E 135°25'0 0.0
2018-Jun-14 07:54N 34°37' E 135°25'0 0.0
2018-Jun-14 07:30N 34°37' E 135°25'0 0.0
2018-Jun-14 06:48N 34°37' E 135°25'0 0.0
2018-Jun-14 06:30N 34°37' E 135°25'0 0.0
2018-Jun-14 06:00N 34°37' E 135°25'1 1.1
2018-Jun-14 05:30N 34°37' E 135°24'714.6
2018-Jun-14 05:00N 34°33' E 135°17'919.0
2018-Jun-14 04:30N 34°26' E 135°09'918.6
2018-Jun-14 04:00N 34°20' E 135°01'816.4
2018-Jun-14 03:30N 34°12' E 134°59'919.0
2018-Jun-14 03:00N 34°02' E 134°59'1019.1
2018-Jun-14 02:30N 33°53' E 134°60'1018.4
2018-Jun-14 01:59N 33°44' E 135°04'1118.9
2018-Jun-14 01:25N 33°36' E 135°13'23918.2
2018-Jun-13 12:16N 35°06' E 139°42'518.0
2018-Jun-13 11:58N 35°10' E 139°45'612.9
2018-Jun-13 11:30N 35°16' E 139°45'612.7
2018-Jun-13 11:00N 35°22' E 139°42'918.1
2018-Jun-13 10:30N 35°29' E 139°50'713.3
2018-Jun-13 09:59N 35°36' E 139°47'2 0.1
2018-Jun-12 07:12N 35°37' E 139°47'0 0.0
2018-Jun-12 03:07N 35°37' E 139°47'1 5.4
2018-Jun-12 02:58N 35°37' E 139°48'4 8.9
2018-Jun-12 02:30N 35°33' E 139°50'714.7
2018-Jun-12 02:00N 35°26' E 139°48'713.6
2018-Jun-12 01:30N 35°20' E 139°45'611.9
2018-Jun-12 01:00N 35°15' E 139°47'815.4
2018-Jun-12 00:30N 35°07' E 139°45'24218.1
2018-Jun-11 11:06N 33°39' E 135°12'219.9
2018-Jun-11 11:00N 33°41' E 135°10'1020.1
2018-Jun-11 10:31N 33°48' E 135°03'1018.9
2018-Jun-11 10:00N 33°57' E 134°58'1019.7
2018-Jun-11 09:31N 34°07' E 134°58'1019.8
2018-Jun-11 09:01N 34°16' E 134°58'1019.2
2018-Jun-11 08:31N 34°26' E 135°02'1020.4
2018-Jun-11 08:01N 34°32' E 135°11'918.2
2018-Jun-11 07:31N 34°37' E 135°21'3 0.8
2018-Jun-11 03:21N 34°37' E 135°25'0 0.0
2018-Jun-11 02:57N 34°37' E 135°25'0 0.0
2018-Jun-11 02:27N 34°37' E 135°25'0 0.0
2018-Jun-11 01:57N 34°37' E 135°25'0 0.0
2018-Jun-11 01:27N 34°37' E 135°25'0 0.0
2018-Jun-11 00:57N 34°37' E 135°25'0 0.0
2018-Jun-11 00:27N 34°37' E 135°25'0 0.0
2018-Jun-10 23:57N 34°37' E 135°25'0 0.0
2018-Jun-10 23:09N 34°37' E 135°25'0 0.0
2018-Jun-10 22:51N 34°37' E 135°25'0 0.0
2018-Jun-10 22:21N 34°37' E 135°25'0 0.0
2018-Jun-10 20:51N 34°37' E 135°25'0 0.0
2018-Jun-10 20:21N 34°37' E 135°25'0 0.0
2018-Jun-10 19:57N 34°37' E 135°25'0 0.0
2018-Jun-10 19:27N 34°37' E 135°25'0 0.0
2018-Jun-10 18:57N 34°37' E 135°25'0 0.0
2018-Jun-10 17:42N 34°37' E 135°25'0 0.1
2018-Jun-10 17:30N 34°37' E 135°25'2 4.7
2018-Jun-10 17:00N 34°37' E 135°22'815.9
2018-Jun-10 16:30N 34°32' E 135°15'918.8
2018-Jun-10 16:00N 34°25' E 135°07'918.9
2018-Jun-10 15:30N 34°18' E 134°60'918.2
2018-Jun-10 15:00N 34°09' E 134°57'1019.5
2018-Jun-10 14:30N 33°59' E 134°55'2619.1
2018-Jun-10 13:10N 33°36' E 134°43'  

Dump ship's entire track history